Flight Track Log - Related Links

Times and Time Zones

All times are in EDT time to prevent confusion due to time zone crossing. See the UAL252 flight status page for this flight to view local times or setup timezone preferences in your user account.

Time Position Orientation Groundspeed Altitude Reporting Facility
EDT Latitude Longitude Course Direction KTS MPH feet Rate Location/Type
Sat 05:53:24 PM 33.9333 -118.4333 253° West 184 212 1,500  Level Southern California TRACON
Sat 05:54:24 PM 33.9167 -118.5000 253° West 228 262 4,000 2,250 Climbing Southern California TRACON
Sat 05:55:24 PM 33.8667 -118.5167 195° South 290 334 6,000 2,382 Climbing Southern California TRACON
Sat 05:56:35 PM 33.9056 -118.4406 195° South 271 312 9,200 2,256 Climbing Los Angeles Center
Sat 05:57:37 PM 33.9644 -118.3806 40° Northeast 295 339 11,000 1,544 Climbing Los Angeles Center
Sat 05:58:51 PM 34.0169 -118.2861 56° Northeast 327 376 12,700 1,765 Climbing Los Angeles Center
Sat 05:59:53 PM 34.0872 -118.1642 55° Northeast 358 412 15,000 2,081 Climbing Los Angeles Center
Sat 06:00:55 PM 34.1489 -118.0542 56° Northeast 383 441 17,000 1,887 Climbing Los Angeles Center
Sat 06:01:57 PM 34.2117 -117.9439 55° Northeast 395 455 18,900 1,756 Climbing Los Angeles Center
Sat 06:02:58 PM 34.2858 -117.8372 50° Northeast 407 468 20,600 1,659 Climbing Los Angeles Center
Sat 06:04:00 PM 34.3617 -117.7292 50° Northeast 419 482 22,300 1,694 Climbing Los Angeles Center
Sat 06:05:02 PM 34.4436 -117.6086 50° Northeast 435 501 24,100 1,548 Climbing Los Angeles Center
Sat 06:06:04 PM 34.5225 -117.4950 50° Northeast 440 506 25,500 1,500 Climbing Los Angeles Center
Sat 06:07:06 PM 34.6194 -117.3533 50° Northeast 458 527 27,200 1,500 Climbing Los Angeles Center
Sat 06:08:08 PM 34.7025 -117.2333 50° Northeast 466 536 28,600 1,258 Climbing Los Angeles Center
Sat 06:09:10 PM 34.7853 -117.1117 50° Northeast 471 542 29,800 1,210 Climbing Los Angeles Center
Sat 06:10:12 PM 34.8692 -116.9869 51° Northeast 478 550 31,100 1,366 Climbing Los Angeles Center
Sat 06:11:13 PM 34.9528 -116.8617 51° Northeast 479 551 32,600 1,463 Climbing Los Angeles Center
Sat 06:12:15 PM 35.0539 -116.7125 50° Northeast 477 549 34,100 1,161 Climbing Los Angeles Center
Sat 06:13:17 PM 35.1367 -116.5883 51° Northeast 476 548 35,000 435 Climbing Los Angeles Center
Sat 06:14:19 PM 35.2208 -116.4656 50° Northeast 474 545 35,000  Level Los Angeles Center
Sat 06:15:21 PM 35.3050 -116.3397 51° Northeast 478 550 35,000  Level Los Angeles Center
Sat 06:16:22 PM 35.3881 -116.2133 51° Northeast 480 552 35,000  Level Los Angeles Center
Sat 06:17:24 PM 35.4703 -116.0864 51° Northeast 477 549 35,000  Level Los Angeles Center
Sat 06:18:26 PM 35.5714 -115.9361 50° Northeast 477 549 35,000  Level Los Angeles Center
Sat 06:19:28 PM 35.6569 -115.8050 51° Northeast 476 548 35,000  Level Los Angeles Center
Sat 06:20:29 PM 35.7392 -115.6800 51° Northeast 473 544 35,000  Level Los Angeles Center
Sat 06:21:31 PM 35.8211 -115.5561 51° Northeast 470 541 35,000 145 Level Los Angeles Center
Sat 06:22:33 PM 35.9019 -115.4325 51° Northeast 467 537 35,300 677 Climbing Los Angeles Center
Sat 06:23:35 PM 35.9822 -115.3103 51° Northeast 464 534 36,400 829 Climbing Los Angeles Center
Sat 06:24:36 PM 36.0797 -115.1606 51° Northeast 469 540 37,000 293 Climbing Los Angeles Center
Sat 06:25:38 PM 36.1703 -115.0458 46° Northeast 469 540 37,000  Level Los Angeles Center
Sat 06:26:40 PM 36.2589 -114.9269 47° Northeast 472 543 37,000  Level Los Angeles Center
Sat 06:27:42 PM 36.3508 -114.8108 45° Northeast 473 544 37,000  Level Los Angeles Center
Sat 06:28:43 PM 36.4231 -114.7181 46° Northeast 470 541 37,000  Level Los Angeles Center
Sat 06:29:45 PM 36.5297 -114.5781 47° Northeast 466 536 37,000  Level Los Angeles Center
Sat 06:30:47 PM 36.6197 -114.4619 46° Northeast 465 535 37,000  Level Los Angeles Center
Sat 06:31:49 PM 36.7267 -114.3228 46° Northeast 463 533 37,000  Level Los Angeles Center
Sat 06:32:50 PM 36.8028 -114.1906 54° Northeast 467 537 37,000  Level Los Angeles Center
Sat 06:33:52 PM 36.8700 -114.0511 59° Northeast 469 540 37,000  Level Los Angeles Center
Sat 06:34:54 PM 36.9369 -113.9100 59° Northeast 472 543 37,000  Level Los Angeles Center
Sat 06:35:56 PM 37.0133 -113.7508 59° Northeast 469 540 37,000  Level Los Angeles Center
Sat 06:36:57 PM 37.0797 -113.6108 59° Northeast 468 539 37,000  Level Los Angeles Center
Sat 06:37:59 PM 37.1453 -113.4700 60° Northeast 468 539 37,000  Level Los Angeles Center
Sat 06:39:01 PM 37.2117 -113.3292 59° Northeast 470 541 37,000  Level Los Angeles Center
Sat 06:40:02 PM 37.2783 -113.1881 59° Northeast 471 542 37,000  Level Los Angeles Center
Sat 06:41:04 PM 37.3444 -113.0478 59° Northeast 470 541 37,000  Level Los Angeles Center
Sat 06:42:06 PM 37.4106 -112.9061 60° Northeast 474 545 37,000  Level Los Angeles Center
Sat 06:42:44 PM 37.4603 -112.7936 61° Northeast 475 547 37,000  Level Salt Lake Center
Sat 06:43:46 PM 37.5272 -112.6536 59° Northeast 478 550 37,000  Level Salt Lake Center
Sat 06:44:47 PM 37.5931 -112.5133 59° Northeast 473 544 37,000  Level Salt Lake Center
Sat 06:45:49 PM 37.6594 -112.3708 59° Northeast 474 545 37,000  Level Salt Lake Center
Sat 06:46:50 PM 37.7300 -112.2322 57° Northeast 472 543 37,000  Level Salt Lake Center
Sat 06:47:51 PM 37.8233 -112.0744 53° Northeast 469 540 37,000  Level Salt Lake Center
Sat 06:48:53 PM 37.9003 -111.9422 54° Northeast 468 539 37,000  Level Salt Lake Center
Sat 06:49:54 PM 37.9764 -111.8083 54° Northeast 469 540 37,000  Level Salt Lake Center
Sat 06:50:56 PM 38.0536 -111.6756 54° Northeast 470 541 37,000  Level Salt Lake Center
Sat 06:51:57 PM 38.1306 -111.5406 54° Northeast 473 544 37,000  Level Salt Lake Center
Sat 06:52:58 PM 38.2069 -111.4056 54° Northeast 472 543 37,000  Level Salt Lake Center
Sat 06:54:00 PM 38.2822 -111.2703 55° Northeast 470 541 37,000  Level Salt Lake Center
Sat 06:55:01 PM 38.3600 -111.1350 54° Northeast 474 545 37,000  Level Salt Lake Center
Sat 06:56:02 PM 38.4500 -110.9708 55° Northeast 472 543 37,000  Level Salt Lake Center
Sat 06:57:04 PM 38.5169 -110.8522 54° Northeast 474 545 37,000  Level Salt Lake Center
Sat 06:58:05 PM 38.6017 -110.6992 55° Northeast 472 543 37,000  Level Salt Lake Center
Sat 06:59:18 PM 38.6981 -110.5214 55° Northeast 472 543 37,000  Level Denver Center
Sat 07:00:08 PM 38.7594 -110.4125 54° Northeast 476 548 37,000  Level Salt Lake Center
Sat 07:01:09 PM 38.8331 -110.2794 55° Northeast 477 549 37,000  Level Salt Lake Center
Sat 07:02:11 PM 38.9053 -110.1442 56° Northeast 479 551 37,000  Level Salt Lake Center
Sat 07:03:12 PM 38.9900 -109.9869 55° Northeast 480 552 37,000  Level Salt Lake Center
Sat 07:04:13 PM 39.0633 -109.8525 55° Northeast 479 551 37,000  Level Salt Lake Center
Sat 07:05:15 PM 39.1469 -109.6931 56° Northeast 482 555 37,000  Level Salt Lake Center
Sat 07:06:16 PM 39.2197 -109.5569 55° Northeast 481 554 37,000  Level Salt Lake Center
Sat 07:07:17 PM 39.2922 -109.4208 55° Northeast 481 554 37,000  Level Salt Lake Center
Sat 07:08:19 PM 39.3761 -109.2606 56° Northeast 483 556 37,000  Level Salt Lake Center
Sat 07:09:20 PM 39.4494 -109.1225 55° Northeast 486 559 37,000  Level Salt Lake Center
Sat 07:10:21 PM 39.5333 -108.9625 56° Northeast 482 555 37,000  Level Salt Lake Center
Sat 07:11:23 PM 39.6050 -108.8258 56° Northeast 481 554 37,000  Level Salt Lake Center
Sat 07:12:24 PM 39.6858 -108.6711 56° Northeast 491 565 37,000  Level Salt Lake Center
Sat 07:13:25 PM 39.7578 -108.5325 56° Northeast 489 563 37,000  Level Salt Lake Center
Sat 07:14:27 PM 39.8411 -108.3700 56° Northeast 485 558 37,000  Level Salt Lake Center
Sat 07:15:28 PM 39.9136 -108.2311 56° Northeast 485 558 37,000  Level Salt Lake Center
Sat 07:16:29 PM 39.9975 -108.0675 56° Northeast 486 559 37,000  Level Salt Lake Center
Sat 07:17:31 PM 40.0672 -107.9244 57° Northeast 487 560 37,000  Level Salt Lake Center
Sat 07:18:49 PM 40.1183 -107.7064 73° East 487 560 37,000  Level Denver Center
Sat 07:19:50 PM 40.1553 -107.5447 73° East 485 558 37,000  Level Denver Center
Sat 07:20:52 PM 40.1978 -107.3569 73° East 483 556 37,000  Level Denver Center
Sat 07:21:53 PM 40.2272 -107.2242 74° East 478 550 37,000  Level Denver Center
Sat 07:22:55 PM 40.2769 -107.0108 73° East 479 551 37,000  Level Denver Center
Sat 07:23:57 PM 40.3156 -106.8411 73° East 478 550 37,000  Level Denver Center
Sat 07:24:58 PM 40.3528 -106.6722 74° East 480 552 37,000  Level Denver Center
Sat 07:26:00 PM 40.3892 -106.5008 74° East 483 556 37,000  Level Denver Center
Sat 07:27:02 PM 40.4236 -106.3381 74° East 484 557 37,000  Level Denver Center
Sat 07:28:03 PM 40.4656 -106.1553 73° East 487 560 37,000  Level Denver Center
Sat 07:29:05 PM 40.5014 -105.9844 75° East 485 558 37,000  Level Denver Center
Sat 07:30:07 PM 40.5367 -105.8122 75° East 488 562 37,000  Level Denver Center
Sat 07:31:08 PM 40.5722 -105.6419 75° East 485 558 37,000  Level Denver Center
Sat 07:32:10 PM 40.6061 -105.4786 75° East 472 543 37,000  Level Denver Center
Sat 07:33:12 PM 40.6467 -105.2856 74° East 460 529 37,000  Level Denver Center
Sat 07:34:13 PM 40.6792 -105.1283 75° East 451 519 37,000  Level Denver Center
Sat 07:35:15 PM 40.7117 -104.9700 75° East 447 514 37,000  Level Denver Center
Sat 07:36:17 PM 40.7425 -104.8156 75° East 440 506 37,000  Level Denver Center
Sat 07:37:18 PM 40.7733 -104.6608 75° East 437 503 37,000  Level Denver Center
Sat 07:38:20 PM 40.8031 -104.5058 76° East 436 502 37,000  Level Denver Center
Sat 07:39:22 PM 40.8353 -104.3506 75° East 438 504 37,000  Level Denver Center
Sat 07:40:23 PM 40.8667 -104.1908 75° East 448 516 37,000  Level Denver Center
Sat 07:41:25 PM 40.9047 -103.9939 76° East 460 529 37,000  Level Denver Center
Sat 07:42:27 PM 40.9372 -103.8242 76° East 473 544 37,000  Level Denver Center
Sat 07:43:28 PM 40.9600 -103.6494 80° East 480 552 37,000  Level Denver Center
Sat 07:44:30 PM 40.9769 -103.4722 83° East 485 558 37,000  Level Denver Center
Sat 07:45:32 PM 40.9928 -103.3003 83° East 484 557 37,000  Level Denver Center
Sat 07:46:34 PM 41.0131 -103.1011 82° East 487 560 37,000  Level Denver Center
Sat 07:47:35 PM 41.0331 -102.9089 82° East 498 573 37,000  Level Denver Center
Sat 07:48:37 PM 41.0486 -102.7342 83° East 500 575 37,000  Level Denver Center
Sat 07:49:39 PM 41.0686 -102.5292 83° East 503 579 37,000  Level Denver Center
Sat 07:50:41 PM 41.0842 -102.3544 83° East 500 575 37,000  Level Denver Center
Sat 07:51:42 PM 41.1000 -102.1814 83° East 494 568 37,000  Level Denver Center
Sat 07:52:44 PM 41.1183 -101.9858 83° East 480 552 37,000  Level Denver Center
Sat 07:53:46 PM 41.1322 -101.8225 84° East 468 539 37,000  Level Denver Center
Sat 07:54:48 PM 41.1481 -101.6289 84° East 472 543 37,000  Level Denver Center
Sat 07:55:49 PM 41.1650 -101.4597 82° East 480 552 37,000  Level Denver Center
Sat 07:56:51 PM 41.2119 -101.2664 72° East 490 564 37,000  Level Denver Center
Sat 07:57:53 PM 41.2547 -101.1006 71° East 492 566 37,000  Level Denver Center
Sat 07:58:55 PM 41.3008 -100.9336 70° East 498 573 37,000  Level Denver Center
Sat 07:59:56 PM 41.3556 -100.7408 69° East 496 571 37,000  Level Denver Center
Sat 08:00:58 PM 41.4039 -100.5778 68° East 493 567 37,000  Level Denver Center
Sat 08:02:00 PM 41.4606 -100.3883 68° East 491 565 37,000  Level Denver Center
Sat 08:03:02 PM 41.5106 -100.2278 67° East 489 563 37,000  Level Denver Center
Sat 08:04:16 PM 41.5767 -100.0136 68° East 488 562 37,000  Level Denver Center
Sat 08:05:17 PM 41.6261 -99.8522 68° East 489 563 37,000  Level Denver Center
Sat 08:06:19 PM 41.6750 -99.6975 67° East 489 563 37,000  Level Denver Center
Sat 08:07:21 PM 41.7400 -99.4978 66° East 487 560 37,000  Level Denver Center
Sat 08:08:22 PM 41.7947 -99.3297 66° East 489 563 37,000  Level Denver Center
Sat 08:09:24 PM 41.8442 -99.1581 69° East 490 564 37,000  Level Denver Center
Sat 08:10:26 PM 41.8700 -98.9794 79° East 495 570 37,000  Level Denver Center
Sat 08:11:28 PM 41.8631 -98.7994 93° East 480 552 37,000  Level Denver Center
Sat 08:12:29 PM 41.8522 -98.6183 95° East 483 556 37,000  Level Denver Center
Sat 08:13:31 PM 41.8417 -98.4392 94° East 481 554 37,000  Level Denver Center
Sat 08:14:53 PM 41.8258 -98.1869 95° East 484 557 37,000  Level Minneapolis Center
Sat 08:15:54 PM 41.8142 -97.9956 95° East 486 559 37,000  Level Minneapolis Center
Sat 08:16:56 PM 41.8019 -97.8150 95° East 486 559 37,000  Level Minneapolis Center
Sat 08:17:57 PM 41.7886 -97.6344 96° East 487 560 37,000  Level Minneapolis Center
Sat 08:18:59 PM 41.7764 -97.4533 95° East 489 563 37,000  Level Minneapolis Center
Sat 08:20:00 PM 41.7639 -97.2742 95° East 485 558 37,000  Level Minneapolis Center
Sat 08:21:01 PM 41.7494 -97.0964 96° East 482 555 37,000  Level Minneapolis Center
Sat 08:22:03 PM 41.7369 -96.9189 95° East 480 552 37,000  Level Minneapolis Center
Sat 08:23:04 PM 41.7231 -96.7433 96° East 475 547 37,000  Level Minneapolis Center
Sat 08:24:06 PM 41.7064 -96.5358 96° East 467 537 37,000  Level Minneapolis Center
Sat 08:25:07 PM 41.6928 -96.3639 96° East 464 534 37,000  Level Minneapolis Center
Sat 08:26:08 PM 41.6789 -96.1914 96° East 463 533 37,000  Level Minneapolis Center
Sat 08:27:10 PM 41.6633 -96.0175 97° East 465 535 37,000  Level Minneapolis Center
Sat 08:28:11 PM 41.6492 -95.8581 97° East 466 536 37,000  Level Minneapolis Center
Sat 08:29:13 PM 41.6339 -95.6839 97° East 469 540 37,000  Level Minneapolis Center
Sat 08:30:14 PM 41.6172 -95.4906 97° East 475 547 37,000  Level Minneapolis Center
Sat 08:31:16 PM 41.6197 -95.3125 89° East 479 551 37,000  Level Minneapolis Center
Sat 08:32:17 PM 41.6347 -95.1344 84° East 480 552 37,000  Level Minneapolis Center
Sat 08:33:19 PM 41.6469 -94.9586 85° East 476 548 37,000  Level Minneapolis Center
Sat 08:34:20 PM 41.6594 -94.7831 84° East 474 545 37,000  Level Minneapolis Center
Sat 08:35:22 PM 41.6731 -94.6089 84° East 471 542 37,000  Level Minneapolis Center
Sat 08:36:23 PM 41.6875 -94.4006 85° East 468 539 37,000  Level Minneapolis Center
Sat 08:37:25 PM 41.6989 -94.2283 85° East 465 535 37,000  Level Minneapolis Center
Sat 08:38:26 PM 41.7103 -94.0603 85° East 456 525 37,000  Level Minneapolis Center
Sat 08:39:28 PM 41.7208 -93.8925 85° East 453 521 37,000  Level Minneapolis Center
Sat 08:40:29 PM 41.7311 -93.7244 85° East 453 521 37,000  Level Minneapolis Center
Sat 08:41:31 PM 41.7419 -93.5586 85° East 451 519 37,000  Level Minneapolis Center
Sat 08:42:32 PM 41.7517 -93.3944 85° East 448 516 37,000  Level Minneapolis Center
Sat 08:43:34 PM 41.7628 -93.2322 85° East 444 511 37,000  Level Minneapolis Center
Sat 08:44:35 PM 41.7731 -93.0358 86° East 444 511 37,000  Level Minneapolis Center
Sat 08:45:37 PM 41.7822 -92.8697 86° East 447 514 37,000  Level Minneapolis Center
Sat 08:46:38 PM 41.7914 -92.7017 86° East 446 513 37,000  Level Minneapolis Center
Sat 08:47:40 PM 41.8006 -92.5422 86° East 440 506 37,000  Level Minneapolis Center
Sat 08:48:41 PM 41.8086 -92.3814 86° East 437 503 37,000  Level Minneapolis Center
Sat 08:49:43 PM 41.8172 -92.2208 86° East 438 504 37,000  Level Minneapolis Center
Sat 08:50:45 PM 41.8256 -92.0547 86° East 444 511 37,000  Level Minneapolis Center
Sat 08:51:46 PM 41.8350 -91.8528 86° East 452 520 37,000  Level Minneapolis Center
Sat 08:52:48 PM 41.8425 -91.7028 86° East 454 522 37,000  Level Minneapolis Center
Sat 08:54:05 PM 41.8522 -91.4767 87° East 463 533 37,000  Level Chicago Center
Sat 08:55:06 PM 41.8583 -91.3081 87° East 460 529 37,000  Level Chicago Center
Sat 08:56:08 PM 41.8667 -91.1078 87° East 456 525 37,000  Level Chicago Center
Sat 08:57:09 PM 41.8725 -90.9411 87° East 454 522 37,000  Level Chicago Center
Sat 08:58:11 PM 41.8792 -90.7744 87° East 455 524 37,000  Level Chicago Center
Sat 08:59:12 PM 41.8853 -90.6061 87° East 457 526 37,000  Level Chicago Center
Sat 09:00:16 PM 41.8922 -90.4067 87° East 454 522 37,000  Level Chicago Center
Sat 09:01:18 PM 41.8978 -90.2381 87° East 457 526 37,000  Level Chicago Center
Sat 09:02:19 PM 41.9033 -90.0692 87° East 459 528 37,000  Level Chicago Center
Sat 09:03:21 PM 41.9089 -89.8897 88° East 454 522 37,000  Level Chicago Center
Sat 09:04:22 PM 41.9131 -89.7217 88° East 455 524 37,000  Level Chicago Center
Sat 09:05:24 PM 41.9183 -89.5522 88° East 458 527 37,000  Level Chicago Center
Sat 09:06:25 PM 41.9233 -89.3808 88° East 462 532 37,000  Level Chicago Center
Sat 09:07:26 PM 41.9275 -89.2125 88° East 455 524 37,000  Level Chicago Center
Sat 09:08:28 PM 41.9306 -89.0433 89° East 456 525 37,000  Level Chicago Center
Sat 09:09:29 PM 41.9356 -88.8425 88° East 457 526 37,000  Level Chicago Center
Sat 09:10:31 PM 41.9392 -88.6731 88° East 457 526 37,000  Level Chicago Center
Sat 09:11:32 PM 41.9406 -88.5083 89° East 448 516 37,000  Level Chicago Center
Sat 09:12:33 PM 41.9439 -88.3425 88° East 444 511 37,000  Level Chicago Center
Sat 09:13:35 PM 41.9453 -88.1744 89° East 449 517 37,000  Level Chicago Center
Sat 09:14:36 PM 41.9478 -88.0044 89° East 454 522 37,000  Level Chicago Center
Sat 09:15:38 PM 41.9486 -87.8386 90° East 448 516 37,000  Level Chicago Center
Sat 09:16:39 PM 41.9503 -87.6719 89° East 447 514 37,000  Level Chicago Center
Sat 09:17:40 PM 41.9528 -87.4717 89° East 449 517 37,000  Level Chicago Center
Sat 09:18:42 PM 41.9547 -87.3036 89° East 450 518 37,000  Level Chicago Center
Sat 09:19:43 PM 41.9556 -87.1361 90° East 450 518 37,000  Level Chicago Center
Sat 09:20:44 PM 41.9561 -86.9694 90° East 449 517 37,000  Level Chicago Center
Sat 09:21:46 PM 41.9569 -86.8031 90° East 449 517 37,000  Level Chicago Center
Sat 09:22:47 PM 41.9569 -86.6231 90° East 447 514 37,000  Level Chicago Center
Sat 09:23:48 PM 41.9569 -86.4553 90° East 449 517 37,000  Level Chicago Center
Sat 09:24:50 PM 41.9575 -86.2889 90° East 447 514 37,000  Level Chicago Center
Sat 09:25:51 PM 41.9578 -86.1233 90° East 444 511 37,000  Level Chicago Center
Sat 09:26:52 PM 41.9575 -85.9578 90° East 444 511 37,000  Level Chicago Center
Sat 09:27:54 PM 41.9556 -85.7919 91° East 442 509 37,000  Level Chicago Center
Sat 09:28:55 PM 41.9547 -85.6269 90° East 441 507 37,000  Level Chicago Center
Sat 09:29:56 PM 41.9533 -85.4614 91° East 440 506 37,000  Level Chicago Center
Sat 09:30:58 PM 41.9531 -85.2956 90° East 440 506 37,000  Level Chicago Center
Sat 09:31:59 PM 41.9508 -85.1281 91° East 447 514 37,000  Level Chicago Center
Sat 09:33:00 PM 41.9514 -84.9608 90° East 446 513 37,000  Level Chicago Center
Sat 09:34:02 PM 41.9497 -84.7636 91° East 440 506 37,000  Level Chicago Center
Sat 09:35:03 PM 41.9483 -84.6008 91° East 439 505 37,000  Level Chicago Center
Sat 09:36:04 PM 41.9481 -84.4369 90° East 437 503 37,000  Level Chicago Center
Sat 09:36:35 PM 41.9497 -84.3664 88° East 443 510 37,000  Level Cleveland Center
Sat 09:37:35 PM 41.9406 -84.1928 94° East 438 504 37,000  Level Cleveland Center
Sat 09:38:35 PM 41.9394 -84.0308 90° East 433 498 37,000  Level Cleveland Center
Sat 09:39:35 PM 41.9378 -83.8689 91° East 427 491 37,000  Level Cleveland Center
Sat 09:40:35 PM 41.9342 -83.7067 92° East 432 497 37,000  Level Cleveland Center
Sat 09:41:35 PM 41.9364 -83.5419 89° East 432 497 37,000  Level Cleveland Center
Sat 09:42:35 PM 41.9336 -83.3994 91° East 432 497 37,000  Level Cleveland Center
Sat 09:43:35 PM 41.9333 -83.2350 90° East 437 503 37,000  Level Cleveland Center
Sat 09:44:35 PM 41.9308 -83.0672 91° East 443 510 37,000  Level Cleveland Center
Sat 09:45:35 PM 41.9281 -82.9025 91° East 443 510 37,000  Level Cleveland Center
Sat 09:46:35 PM 41.9272 -82.7350 90° East 443 510 37,000  Level Cleveland Center
Sat 09:47:35 PM 41.9261 -82.5675 90° East 443 510 37,000  Level Cleveland Center
Sat 09:48:35 PM 41.9206 -82.4025 93° East 443 510 37,000  Level Cleveland Center
Sat 09:49:35 PM 41.9189 -82.2353 91° East 443 510 37,000  Level Cleveland Center
Sat 09:50:35 PM 41.9192 -82.0508 90° East 443 510 37,000  Level Cleveland Center
Sat 09:51:35 PM 41.9172 -81.8836 91° East 443 510 37,000  Level Cleveland Center
Sat 09:52:35 PM 41.9064 -81.7158 95° East 448 516 37,000  Level Cleveland Center
Sat 09:53:35 PM 41.8914 -81.5483 97° East 448 516 37,000  Level Cleveland Center
Sat 09:54:35 PM 41.8781 -81.3781 96° East 448 516 37,000  Level Cleveland Center
Sat 09:55:35 PM 41.8622 -81.2272 98° East 448 516 37,000  Level Cleveland Center
Sat 09:56:35 PM 41.8483 -81.0653 97° East 443 510 37,000  Level Cleveland Center
Sat 09:57:35 PM 41.8325 -80.9008 97° East 448 516 37,000  Level Cleveland Center
Sat 09:58:35 PM 41.8161 -80.7364 98° East 448 516 37,000  Level Cleveland Center
Sat 09:59:35 PM 41.7975 -80.5581 98° East 448 516 37,000  Level Cleveland Center
Sat 10:00:35 PM 41.7806 -80.3911 98° East 448 516 37,000  Level Cleveland Center
Sat 10:01:35 PM 41.7656 -80.2267 97° East 448 516 37,000  Level Cleveland Center
Sat 10:02:35 PM 41.7461 -80.0600 99° East 448 516 37,000  Level Cleveland Center
Sat 10:03:35 PM 41.7308 -79.8931 97° East 448 516 37,000  Level Cleveland Center
Sat 10:04:35 PM 41.7128 -79.7264 98° East 448 516 37,000  Level Cleveland Center
Sat 10:05:35 PM 41.6950 -79.5625 98° East 448 516 37,000  Level Cleveland Center
Sat 10:06:35 PM 41.6786 -79.3933 97° East 448 516 37,000  Level Cleveland Center
Sat 10:07:35 PM 41.6581 -79.2325 100° East 448 516 37,000  Level Cleveland Center
Sat 10:08:35 PM 41.6414 -79.0661 98° East 448 516 37,000 -100 Level Cleveland Center
Sat 10:09:35 PM 41.6225 -78.8997 99° East 448 516 36,800 -700 Descending Cleveland Center
Sat 10:10:35 PM 41.6053 -78.7392 98° East 448 516 35,600 -1,094 Descending Cleveland Center
Sat 10:12:36 PM 41.5667 -78.4211 99° East 437 503 33,500 -989 Descending New York Center
Sat 10:13:37 PM 41.5497 -78.2611 98° East 437 503 32,600 -893 Descending New York Center
Sat 10:14:37 PM 41.5267 -78.0950 100° East 437 503 31,700 -800 Descending New York Center
Sat 10:15:37 PM 41.5072 -77.9350 99° East 437 503 31,000 -347 Descending New York Center
Sat 10:16:38 PM 41.4858 -77.7719 100° East 437 503 31,000  Level New York Center
Sat 10:17:38 PM 41.4600 -77.6058 102° East 437 503 31,000  Level New York Center
Sat 10:18:36 PM 41.4333 -77.4150 100° East 459 528 31,000  Level New York Center
Sat 10:19:37 PM 41.4075 -77.2436 101° East 465 535 31,000  Level New York Center
Sat 10:20:38 PM 41.3814 -77.0697 101° East 475 547 31,000 -500 Level New York Center
Sat 10:21:37 PM 41.3550 -76.8986 102° East 475 547 30,000 -1,664 Descending New York Center
Sat 10:22:37 PM 41.3258 -76.7328 103° East 470 541 27,700 -2,250 Descending New York Center
Sat 10:23:37 PM 41.2836 -76.5772 110° East 457 526 25,500 -2,150 Descending New York Center
Sat 10:24:37 PM 41.2444 -76.4414 111° Southeast 445 512 23,400 -2,016 Descending New York Center
Sat 10:25:39 PM 41.2056 -76.2919 109° East 433 498 21,400 -1,950 Descending New York Center
Sat 10:26:37 PM 41.1664 -76.1483 110° East 419 482 19,500 -2,034 Descending New York Center
Sat 10:27:37 PM 41.1292 -76.0019 109° East 391 450 17,400 -2,083 Descending New York Center
Sat 10:28:38 PM 41.0914 -75.8669 110° East 391 450 15,300 -1,835 Descending New York Center
Sat 10:29:38 PM 41.0608 -75.7492 109° East 385 443 13,700 -1,200 Descending New York Center
Sat 10:30:38 PM 41.0244 -75.6200 110° East 375 432 12,900 -958 Descending New York Center
Sat 10:31:37 PM 40.9842 -75.4822 111° Southeast 369 425 11,800 -1,160 Descending New York Center
Sat 10:32:37 PM 40.9514 -75.3647 110° East 357 411 10,600 -934 Descending New York Center
Sat 10:33:39 PM 40.9222 -75.2583 110° East 324 373 9,900 -800 Descending New York Center
Sat 10:34:37 PM 40.8986 -75.1661 109° East 295 339 9,000 -966 Descending New York Center
Sat 10:35:37 PM 40.8689 -75.0683 112° Southeast 295 339 8,000 -950 Descending New York Center
Sat 10:36:37 PM 40.8436 -74.9569 107° East 295 339 7,100 -496 Descending New York Center
Sat 10:37:38 PM 40.8428 -74.8636 91° East 289 333 7,000 -605 Descending New York Center
Sat 10:38:36 PM 40.8425 -74.7456 90° East 289 333 5,900 -1,000 Descending New York Center
Sat 10:39:38 PM 40.8436 -74.6525 89° East 289 333 5,000 -480 Descending New York Center
Sat 10:40:16 PM 40.8500 -74.5667 84° East 284 327 5,100 61 Climbing New York TRACON
Sat 10:41:16 PM 40.8500 -74.4667 90° East 282 325 5,100  Level New York TRACON
Sat 10:42:16 PM 40.8500 -74.3667 90° East 281 323 5,100  Level New York TRACON
Sat 10:43:10 PM 40.8500 -74.2667 90° East 281 323 5,100 -211 Level New York TRACON
Sat 10:44:10 PM 40.8500 -74.1667 90° East 280 322 4,700 -400 Descending New York TRACON

Login

Don't have an account? Register now (free) for customized features, flight alerts, and more!